Sy Kerpa — 7SY6514 — position and weather

sailwx.info

Track history (hours):
 
Tides and Currents Weather Stations Pressure Air Temp Water Temp Dewpoint Dewpoint Depression Visibility Wind Speed Wind Dir Waves Ship Positions

Sy Kerpa

Last reported at 2017-Oct-09 17:00 UTC. Time now 2017-Nov-21 10:21 UTC.
Position N 39°22' W 075°53'.
Warning: this ship's position is 42 days out of date.

Length 16 m.

Type: Sailing vessel. MMSI: 265757350.

Date/timePositionNaut miles runAvg speedWind from/ knotsBaromVisibWave heightAir tempDewpointWater temp
2017-Oct-09 17:00N 39°22' W 075°53'0 0.0
2017-Oct-09 16:30N 39°22' W 075°53'0 0.0
2017-Oct-09 16:00N 39°22' W 075°53'0 0.0
2017-Oct-09 15:12N 39°22' W 075°53'0 0.0
2017-Oct-09 14:57N 39°22' W 075°53'0 0.0
2017-Oct-09 14:30N 39°22' W 075°53'0 0.0
2017-Oct-09 12:57N 39°22' W 075°53'0 0.0
2017-Oct-09 12:30N 39°22' W 075°53'0 0.0
2017-Oct-09 11:18N 39°22' W 075°53'0 0.0
2017-Oct-09 10:54N 39°22' W 075°53'0 0.0
2017-Oct-09 10:27N 39°22' W 075°53'0 0.0
2017-Oct-09 09:57N 39°22' W 075°53'0 0.0
2017-Oct-09 09:24N 39°22' W 075°53'0 0.0
2017-Oct-09 09:00N 39°22' W 075°53'0 0.0
2017-Oct-09 08:30N 39°22' W 075°53'0 0.0
2017-Oct-09 07:48N 39°22' W 075°53'0 0.0
2017-Oct-09 07:30N 39°22' W 075°53'0 0.0
2017-Oct-09 07:00N 39°22' W 075°53'0 0.0
2017-Oct-09 06:30N 39°22' W 075°53'0 0.0
2017-Oct-09 05:54N 39°22' W 075°53'0 0.0
2017-Oct-09 05:24N 39°22' W 075°53'0 0.0
2017-Oct-09 04:57N 39°22' W 075°53'0 0.0
2017-Oct-09 04:18N 39°22' W 075°53'0 0.0
2017-Oct-09 03:24N 39°22' W 075°53'0 0.0
2017-Oct-09 03:00N 39°22' W 075°53'0 0.0
2017-Oct-09 02:27N 39°22' W 075°53'0 0.0
2017-Oct-09 02:00N 39°22' W 075°53'0 0.0
2017-Oct-09 01:30N 39°22' W 075°53'0 0.0
2017-Oct-09 01:00N 39°22' W 075°53'0 0.0
2017-Oct-08 21:51N 39°22' W 075°53'0 0.0
2017-Oct-08 21:00N 39°22' W 075°53'0 0.0
2017-Oct-08 19:48N 39°22' W 075°53'0 0.0
2017-Oct-08 19:30N 39°22' W 075°53'0 0.0
2017-Oct-08 18:15N 39°22' W 075°53'0 0.0
2017-Oct-08 17:06N 39°22' W 075°53'0 0.0
2017-Oct-08 16:54N 39°22' W 075°53'0 0.0
2017-Oct-08 15:42N 39°22' W 075°53'0 0.0
2017-Oct-08 15:24N 39°22' W 075°53'0 0.0
2017-Oct-08 14:49N 39°22' W 075°53'0 0.8
2017-Oct-08 14:23N 39°22' W 075°53'1 1.5
2017-Oct-08 13:59N 39°22' W 075°54'0 0.0
2017-Oct-08 13:29N 39°22' W 075°54'0 0.0
2017-Oct-08 12:59N 39°22' W 075°54'0 0.0
2017-Oct-08 12:29N 39°22' W 075°54'0 0.0
2017-Oct-08 11:56N 39°22' W 075°54'0 0.0
2017-Oct-08 11:29N 39°22' W 075°54'0 0.0
2017-Oct-08 10:47N 39°22' W 075°54'0 0.0
2017-Oct-08 10:29N 39°22' W 075°54'0 0.0
2017-Oct-08 09:32N 39°22' W 075°54'0 0.0
2017-Oct-08 09:29N 39°22' W 075°54'0 0.0
2017-Oct-08 08:56N 39°22' W 075°54'0 0.0
2017-Oct-08 07:14N 39°22' W 075°54'0 0.0
2017-Oct-08 06:47N 39°22' W 075°54'0 0.0
2017-Oct-08 06:11N 39°22' W 075°54'0 0.0
2017-Oct-08 05:56N 39°22' W 075°54'0 0.0
2017-Oct-08 05:26N 39°22' W 075°54'0 0.0
2017-Oct-08 04:59N 39°22' W 075°54'0 0.0
2017-Oct-08 04:29N 39°22' W 075°54'0 0.0
2017-Oct-08 03:41N 39°22' W 075°54'0 0.0
2017-Oct-08 03:14N 39°22' W 075°54'0 0.0
2017-Oct-08 02:56N 39°22' W 075°54'0 0.0
2017-Oct-08 02:20N 39°22' W 075°54'0 0.0
2017-Oct-08 01:47N 39°22' W 075°54'0 0.0
2017-Oct-08 01:29N 39°22' W 075°54'0 0.0
2017-Oct-08 00:56N 39°22' W 075°54'0 0.0
2017-Oct-08 00:29N 39°22' W 075°54'0 0.0
2017-Oct-07 22:50N 39°22' W 075°54'0 0.0
2017-Oct-07 22:20N 39°22' W 075°54'1 1.9
2017-Oct-07 21:59N 39°22' W 075°55'3 5.6
2017-Oct-07 21:30N 39°22' W 075°59'3 5.6
2017-Oct-07 21:00N 39°23' W 076°02'30 4.3
2017-Oct-07 14:03N 38°59' W 076°25'0 3.5
2017-Oct-07 14:00N 38°58' W 076°25'2 3.7
2017-Oct-07 13:30N 38°58' W 076°28'1 1.8
2017-Oct-07 12:56N 38°58' W 076°29'0 0.0
2017-Oct-07 12:29N 38°58' W 076°29'0 0.0
2017-Oct-07 11:59N 38°58' W 076°29'0 0.0
2017-Oct-07 11:29N 38°58' W 076°29'0 0.0
2017-Oct-07 10:59N 38°58' W 076°29'0 0.0
2017-Oct-07 10:29N 38°58' W 076°29'0 0.0
2017-Oct-07 09:59N 38°58' W 076°29'0 0.0
2017-Oct-07 09:29N 38°58' W 076°29'0 0.0
2017-Oct-07 08:59N 38°58' W 076°29'0 0.0
2017-Oct-07 08:29N 38°58' W 076°29'0 0.0
2017-Oct-07 07:59N 38°58' W 076°29'0 0.0
2017-Oct-07 07:29N 38°58' W 076°29'0 0.0
2017-Oct-07 06:59N 38°58' W 076°29'0 0.0
2017-Oct-07 06:29N 38°58' W 076°29'0 0.0
2017-Oct-07 05:59N 38°58' W 076°29'0 0.0
2017-Oct-07 05:29N 38°58' W 076°29'0 0.0
2017-Oct-07 04:59N 38°58' W 076°29'0 0.0
2017-Oct-07 04:29N 38°58' W 076°29'0 0.0
2017-Oct-07 03:59N 38°58' W 076°29'0 0.0
2017-Oct-07 03:29N 38°58' W 076°29'0 0.0
2017-Oct-07 02:59N 38°58' W 076°29'0 0.0
2017-Oct-07 02:29N 38°58' W 076°29'0 0.0
2017-Oct-07 01:59N 38°58' W 076°29'0 0.0
2017-Oct-07 01:29N 38°58' W 076°29'0 0.0
2017-Oct-07 00:59N 38°58' W 076°29'0 0.0
2017-Oct-06 16:41N 38°58' W 076°29'0 0.0
2017-Oct-06 16:29N 38°58' W 076°29'0 0.0
2017-Oct-06 15:59N 38°58' W 076°29'0 0.0
2017-Oct-06 15:29N 38°58' W 076°29'0 0.0
2017-Oct-06 14:59N 38°58' W 076°29'0 0.0
2017-Oct-06 14:29N 38°58' W 076°29'0 0.0
2017-Oct-06 13:59N 38°58' W 076°29'0 0.0
2017-Oct-06 13:29N 38°58' W 076°29'0 0.0
2017-Oct-06 12:59N 38°58' W 076°29'0 0.0
2017-Oct-06 12:29N 38°58' W 076°29'0 0.0
2017-Oct-06 11:59N 38°58' W 076°29'0 0.0
2017-Oct-06 11:29N 38°58' W 076°29'0 0.0
2017-Oct-06 10:59N 38°58' W 076°29'0 0.0
2017-Oct-06 10:29N 38°58' W 076°29'0 0.0
2017-Oct-06 09:59N 38°58' W 076°29'0 0.0
2017-Oct-06 09:29N 38°58' W 076°29'0 0.0
2017-Oct-06 08:59N 38°58' W 076°29'0 0.0
2017-Oct-06 08:29N 38°58' W 076°29'0 0.0
2017-Oct-06 07:59N 38°58' W 076°29'0 0.0
2017-Oct-06 07:29N 38°58' W 076°29'0 0.0
2017-Oct-06 06:59N 38°58' W 076°29'0 0.0
2017-Oct-06 06:29N 38°58' W 076°29'0 0.0
2017-Oct-06 05:59N 38°58' W 076°29'0 0.0
2017-Oct-06 05:29N 38°58' W 076°29'0 0.0
2017-Oct-06 04:59N 38°58' W 076°29'0 0.0
2017-Oct-06 04:29N 38°58' W 076°29'0 0.0
2017-Oct-06 03:59N 38°58' W 076°29'0 0.0
2017-Oct-06 03:29N 38°58' W 076°29'0 0.0
2017-Oct-06 02:59N 38°58' W 076°29'0 0.0
2017-Oct-06 02:29N 38°58' W 076°29'0 0.0
2017-Oct-06 01:59N 38°58' W 076°29'0 0.0
2017-Oct-06 01:29N 38°58' W 076°29'0 0.0
2017-Oct-06 00:59N 38°58' W 076°29'0 0.0
2017-Oct-06 00:29N 38°58' W 076°29'0 0.0
2017-Oct-05 23:59N 38°58' W 076°29'0 0.0
2017-Oct-05 23:29N 38°58' W 076°29'0 0.0
2017-Oct-05 22:59N 38°58' W 076°29'0 0.0
2017-Oct-05 22:29N 38°58' W 076°29'0 0.0
2017-Oct-05 21:56N 38°58' W 076°29'0 0.0
2017-Oct-05 21:29N 38°58' W 076°29'0 0.0
2017-Oct-05 20:59N 38°58' W 076°29'0 0.0
2017-Oct-05 20:29N 38°58' W 076°29'0 0.0
2017-Oct-05 19:59N 38°58' W 076°29'0 0.0
2017-Oct-05 19:29N 38°58' W 076°29'0 0.0
2017-Oct-05 18:59N 38°58' W 076°29'0 0.0
2017-Oct-05 18:29N 38°58' W 076°29'0 0.0
2017-Oct-05 17:59N 38°58' W 076°29'0 0.0
2017-Oct-05 17:29N 38°58' W 076°29'0 0.0
2017-Oct-05 16:59N 38°58' W 076°29'0 0.0
2017-Oct-05 15:29N 38°58' W 076°29'0 0.0
2017-Oct-05 14:59N 38°58' W 076°29'0 0.0
2017-Oct-05 14:29N 38°58' W 076°29'0 0.0
2017-Oct-05 13:59N 38°58' W 076°29'0 0.0
2017-Oct-05 13:29N 38°58' W 076°29'0 0.0
2017-Oct-05 12:59N 38°58' W 076°29'0 0.0
2017-Oct-05 12:29N 38°58' W 076°29'0 0.0
2017-Oct-05 11:59N 38°58' W 076°29'0 0.0
2017-Oct-05 11:29N 38°58' W 076°29'0 0.0
2017-Oct-05 10:59N 38°58' W 076°29'0 0.0
2017-Oct-05 10:29N 38°58' W 076°29'0 0.0
2017-Oct-05 09:59N 38°58' W 076°29'0 0.0
2017-Oct-05 09:29N 38°58' W 076°29'0 0.0
2017-Oct-05 08:59N 38°58' W 076°29'0 0.0
2017-Oct-05 08:29N 38°58' W 076°29'0 0.0
2017-Oct-05 07:59N 38°58' W 076°29'0 0.0
2017-Oct-05 07:29N 38°58' W 076°29'0 0.0
2017-Oct-05 06:59N 38°58' W 076°29'0 0.0
2017-Oct-05 06:29N 38°58' W 076°29'0 0.0
2017-Oct-05 05:59N 38°58' W 076°29'0 0.0
2017-Oct-05 05:29N 38°58' W 076°29'0 0.0
2017-Oct-05 04:59N 38°58' W 076°29'0 0.0
2017-Oct-05 04:29N 38°58' W 076°29'0 0.0
2017-Oct-05 03:59N 38°58' W 076°29'0 0.0
2017-Oct-05 03:29N 38°58' W 076°29'0 0.0
2017-Oct-05 02:59N 38°58' W 076°29'0 0.0
2017-Oct-05 02:29N 38°58' W 076°29'0 0.0
2017-Oct-05 01:59N 38°58' W 076°29'0 0.0
2017-Oct-05 01:29N 38°58' W 076°29'0 0.0
2017-Oct-05 00:59N 38°58' W 076°29'0 0.0
2017-Oct-05 00:29N 38°58' W 076°29'0 0.0
2017-Oct-04 23:59N 38°58' W 076°29'0 0.0
2017-Oct-04 23:29N 38°58' W 076°29'0 0.0
2017-Oct-04 22:59N 38°58' W 076°29'0 0.0
2017-Oct-04 22:29N 38°58' W 076°29'0 0.0
2017-Oct-04 21:59N 38°58' W 076°29'0 0.0
2017-Oct-04 21:29N 38°58' W 076°29'0 0.0
2017-Oct-04 20:59N 38°58' W 076°29'0 0.0
2017-Oct-04 20:29N 38°58' W 076°29'0 0.0
2017-Oct-04 19:08N 38°58' W 076°29'0 0.0
2017-Oct-04 18:59N 38°58' W 076°29'0 0.0
2017-Oct-04 18:29N 38°58' W 076°29'0 0.0
2017-Oct-04 17:59N 38°58' W 076°29'0 0.0
2017-Oct-04 17:29N 38°58' W 076°29'0 0.0
2017-Oct-04 16:59N 38°58' W 076°29'0 0.0
2017-Oct-04 16:29N 38°58' W 076°29'0 0.0
2017-Oct-04 15:59N 38°58' W 076°29'0 0.0
2017-Oct-04 15:29N 38°58' W 076°29'0 0.0
2017-Oct-04 14:59N 38°58' W 076°29'0 0.0
2017-Oct-04 14:29N 38°58' W 076°29'0 0.0
2017-Oct-04 13:11N 38°58' W 076°29'0 0.0
2017-Oct-04 12:59N 38°58' W 076°29'0 0.0
2017-Oct-04 12:29N 38°58' W 076°29'0 0.0
2017-Oct-04 11:59N 38°58' W 076°29'0 0.0
2017-Oct-04 11:29N 38°58' W 076°29'0 0.0
2017-Oct-04 10:59N 38°58' W 076°29'0 0.0
2017-Oct-04 10:29N 38°58' W 076°29'0 0.0
2017-Oct-04 09:59N 38°58' W 076°29'0 0.0
2017-Oct-04 09:29N 38°58' W 076°29'0 0.0
2017-Oct-04 08:59N 38°58' W 076°29'0 0.0
2017-Oct-04 08:29N 38°58' W 076°29'0 0.0
2017-Oct-04 07:59N 38°58' W 076°29'0 0.0
2017-Oct-04 07:29N 38°58' W 076°29'0 0.0
2017-Oct-04 06:59N 38°58' W 076°29'0 0.0
2017-Oct-04 06:29N 38°58' W 076°29'0 0.0
2017-Oct-04 05:59N 38°58' W 076°29'0 0.0
2017-Oct-04 05:26N 38°58' W 076°29'0 0.0
2017-Oct-04 04:59N 38°58' W 076°29'0 0.0
2017-Oct-04 04:29N 38°58' W 076°29'0 0.0
2017-Oct-04 03:59N 38°58' W 076°29'0 0.0
2017-Oct-04 03:29N 38°58' W 076°29'0 0.0
2017-Oct-04 02:59N 38°58' W 076°29'0 0.0
2017-Oct-04 02:29N 38°58' W 076°29'0 0.0
2017-Oct-04 01:59N 38°58' W 076°29'0 0.0
2017-Oct-04 01:29N 38°58' W 076°29'0 0.0
2017-Oct-04 00:59N 38°58' W 076°29'0 0.0
2017-Oct-04 00:29N 38°58' W 076°29'0 0.0
2017-Oct-03 23:59N 38°58' W 076°29'0 0.0
2017-Oct-03 23:29N 38°58' W 076°29'0 0.0
2017-Oct-03 22:59N 38°58' W 076°29'0 0.0
2017-Oct-03 22:29N 38°58' W 076°29'0 0.0
2017-Oct-03 21:59N 38°58' W 076°29'0 0.0
2017-Oct-03 21:29N 38°58' W 076°29'0 0.0
2017-Oct-03 20:59N 38°58' W 076°29'0 0.0
2017-Oct-03 20:29N 38°58' W 076°29'0 0.0
2017-Oct-03 19:59N 38°58' W 076°29'0 0.0
2017-Oct-03 19:26N 38°58' W 076°29'0 0.0
2017-Oct-03 18:59N 38°58' W 076°29'0 0.0
2017-Oct-03 18:29N 38°58' W 076°29'0 0.0
2017-Oct-03 17:59N 38°58' W 076°29'0 0.0
2017-Oct-03 17:29N 38°58' W 076°29'0 0.0
2017-Oct-03 16:59N 38°58' W 076°29'0 0.0
2017-Oct-03 16:29N 38°58' W 076°29'0 0.0
2017-Oct-03 15:59N 38°58' W 076°29'0 0.0
2017-Oct-03 15:29N 38°58' W 076°29'0 0.0
2017-Oct-03 14:59N 38°58' W 076°29'0 0.0
2017-Oct-03 13:59N 38°58' W 076°29'0 0.0
2017-Oct-03 13:29N 38°58' W 076°29'0 0.0
2017-Oct-03 12:59N 38°58' W 076°29'0 0.0
2017-Oct-03 12:29N 38°58' W 076°29'0 0.0
2017-Oct-03 11:59N 38°58' W 076°29'0 0.0
2017-Oct-03 11:29N 38°58' W 076°29'0 0.0
2017-Oct-03 10:59N 38°58' W 076°29'0 0.0
2017-Oct-03 10:29N 38°58' W 076°29'0 0.0
2017-Oct-03 09:59N 38°58' W 076°29'0 0.0
2017-Oct-03 09:29N 38°58' W 076°29'0 0.0
2017-Oct-03 08:53N 38°58' W 076°29'0 0.0
2017-Oct-03 08:29N 38°58' W 076°29'0 0.0
2017-Oct-03 07:59N 38°58' W 076°29'0 0.0
2017-Oct-03 07:29N 38°58' W 076°29'0 0.0
2017-Oct-03 06:59N 38°58' W 076°29'0 0.0
2017-Oct-03 06:29N 38°58' W 076°29'0 0.0
2017-Oct-03 05:59N 38°58' W 076°29'0 0.0
2017-Oct-03 05:29N 38°58' W 076°29'0 0.0
2017-Oct-03 04:59N 38°58' W 076°29'0 0.0
2017-Oct-03 04:26N 38°58' W 076°29'0 0.0
2017-Oct-03 03:59N 38°58' W 076°29'0 0.0
2017-Oct-03 03:29N 38°58' W 076°29'0 0.0
2017-Oct-03 02:59N 38°58' W 076°29'0 0.0
2017-Oct-03 02:29N 38°58' W 076°29'0 0.0
2017-Oct-03 01:59N 38°58' W 076°29'0 0.0
2017-Oct-03 01:29N 38°58' W 076°29'0 0.0
2017-Oct-03 00:59N 38°58' W 076°29'0 0.0
2017-Oct-03 00:29N 38°58' W 076°29'0 0.0
2017-Oct-02 23:59N 38°58' W 076°29'0 0.0
2017-Oct-02 23:29N 38°58' W 076°29'0 0.0
2017-Oct-02 22:59N 38°58' W 076°29'0 0.0
2017-Oct-02 22:29N 38°58' W 076°29'0 0.0
2017-Oct-02 21:59N 38°58' W 076°29'0 0.0
2017-Oct-02 21:29N 38°58' W 076°29'0 0.0
2017-Oct-02 20:56N 38°58' W 076°29'0 0.0
2017-Oct-02 20:29N 38°58' W 076°29'0 0.0
2017-Oct-02 19:59N 38°58' W 076°29'0 0.0
2017-Oct-02 19:29N 38°58' W 076°29'0 0.0
2017-Oct-02 18:56N 38°58' W 076°29'0 0.0
2017-Oct-02 18:29N 38°58' W 076°29'0 0.0
2017-Oct-02 17:59N 38°58' W 076°29'0 0.0
2017-Oct-02 17:29N 38°58' W 076°29'0 0.0
2017-Oct-02 16:59N 38°58' W 076°29'0 0.0
2017-Oct-02 16:29N 38°58' W 076°29'0 0.0
2017-Oct-02 15:59N 38°58' W 076°29'0 0.0
2017-Oct-02 15:29N 38°58' W 076°29'0 0.0
2017-Oct-02 14:59N 38°58' W 076°29'0 0.0
2017-Oct-02 14:29N 38°58' W 076°29'0 0.0
2017-Oct-02 13:59N 38°58' W 076°29'0 0.0
2017-Oct-02 13:29N 38°58' W 076°29'0 0.0
2017-Oct-02 12:59N 38°58' W 076°29'0 0.0
2017-Oct-02 12:29N 38°58' W 076°29'0 0.0
2017-Oct-02 11:59N 38°58' W 076°29'0 0.0
2017-Oct-02 11:29N 38°58' W 076°29'0 0.0
2017-Oct-02 10:59N 38°58' W 076°29'0 0.0
2017-Oct-02 10:29N 38°58' W 076°29'0 0.0
2017-Oct-02 09:59N 38°58' W 076°29'0 0.0
2017-Oct-02 09:29N 38°58' W 076°29'0 0.0
2017-Oct-02 08:59N 38°58' W 076°29'0 0.0
2017-Oct-02 08:29N 38°58' W 076°29'0 0.0
2017-Oct-02 07:59N 38°58' W 076°29'0 0.0
2017-Oct-02 07:29N 38°58' W 076°29'0 0.0
2017-Oct-02 06:59N 38°58' W 076°29'0 0.0
2017-Oct-02 06:29N 38°58' W 076°29'0 0.0
2017-Oct-02 05:59N 38°58' W 076°29'0 0.0
2017-Oct-02 05:29N 38°58' W 076°29'0 0.0
2017-Oct-02 04:59N 38°58' W 076°29'0 0.0
2017-Oct-02 04:29N 38°58' W 076°29'0 0.0
2017-Oct-02 03:59N 38°58' W 076°29'0 0.0
2017-Oct-02 03:29N 38°58' W 076°29'0 0.0
2017-Oct-02 02:59N 38°58' W 076°29'0 0.0
2017-Oct-02 02:29N 38°58' W 076°29'0 0.0
2017-Oct-02 01:59N 38°58' W 076°29'0 0.0
2017-Oct-02 01:29N 38°58' W 076°29'0 0.0
2017-Oct-02 00:59N 38°58' W 076°29'0 0.0
2017-Oct-02 00:29N 38°58' W 076°29'0 0.0
2017-Oct-01 23:59N 38°58' W 076°29'0 0.0
2017-Oct-01 23:29N 38°58' W 076°29'0 0.0
2017-Oct-01 22:59N 38°58' W 076°29'0 0.0
2017-Oct-01 22:29N 38°58' W 076°29'0 0.0
2017-Oct-01 21:59N 38°58' W 076°29'0 0.0
2017-Oct-01 21:29N 38°58' W 076°29'0 0.0
2017-Oct-01 20:59N 38°58' W 076°29'0 0.0
2017-Oct-01 20:29N 38°58' W 076°29'0 0.0
2017-Oct-01 19:59N 38°58' W 076°29'0 0.0
2017-Oct-01 19:29N 38°58' W 076°29'0 0.0
2017-Oct-01 18:59N 38°58' W 076°29'0 0.0
2017-Oct-01 18:29N 38°58' W 076°29'0 0.0
2017-Oct-01 17:59N 38°58' W 076°29'0 0.0
2017-Oct-01 17:29N 38°58' W 076°29'0 0.0
2017-Oct-01 16:59N 38°58' W 076°29'0 0.0
2017-Oct-01 16:29N 38°58' W 076°29'0 0.0
2017-Oct-01 15:59N 38°58' W 076°29'0 0.0
2017-Oct-01 15:29N 38°58' W 076°29'0 0.0
2017-Oct-01 14:59N 38°58' W 076°29'0 0.0
2017-Oct-01 14:29N 38°58' W 076°29'0 0.0
2017-Oct-01 13:59N 38°58' W 076°29'0 0.0
2017-Oct-01 13:29N 38°58' W 076°29'0 0.0
2017-Oct-01 12:59N 38°58' W 076°29'0 0.0
2017-Oct-01 12:29N 38°58' W 076°29'0 0.0
2017-Oct-01 11:59N 38°58' W 076°29'0 0.0
2017-Oct-01 11:29N 38°58' W 076°29'0 0.0
2017-Oct-01 10:59N 38°58' W 076°29'0 0.0
2017-Oct-01 10:29N 38°58' W 076°29'0 0.0
2017-Oct-01 09:59N 38°58' W 076°29'0 0.0
2017-Oct-01 09:29N 38°58' W 076°29'0 0.0
2017-Oct-01 08:59N 38°58' W 076°29'0 0.0
2017-Oct-01 08:29N 38°58' W 076°29'0 0.0
2017-Oct-01 07:59N 38°58' W 076°29'0 0.0
2017-Oct-01 07:29N 38°58' W 076°29'0 0.0
2017-Oct-01 06:59N 38°58' W 076°29'0 0.0
2017-Oct-01 06:29N 38°58' W 076°29'0 0.0
2017-Oct-01 05:59N 38°58' W 076°29'0 0.0
2017-Oct-01 05:29N 38°58' W 076°29'0 0.0
2017-Oct-01 04:59N 38°58' W 076°29'0 0.0
2017-Oct-01 04:29N 38°58' W 076°29'0 0.0
2017-Oct-01 03:59N 38°58' W 076°29'0 0.0
2017-Oct-01 03:29N 38°58' W 076°29'0 0.0
2017-Oct-01 02:56N 38°58' W 076°29'0 0.0
2017-Sep-30 01:59N 38°58' W 076°29'0 0.0
2017-Sep-30 01:29N 38°58' W 076°29'0 0.0
2017-Sep-30 00:59N 38°58' W 076°29'0 0.0
2017-Sep-30 00:29N 38°58' W 076°29'0 0.0
2017-Sep-29 23:59N 38°58' W 076°29'0 0.0
2017-Sep-29 23:26N 38°58' W 076°29'0 0.0
2017-Sep-29 22:59N 38°58' W 076°29'0 0.0
2017-Sep-29 22:29N 38°58' W 076°29'0 0.0
2017-Sep-29 21:59N 38°58' W 076°29'0 0.0
2017-Sep-29 21:29N 38°58' W 076°29'0 0.0
2017-Sep-29 20:59N 38°58' W 076°29'0 0.0
2017-Sep-29 20:29N 38°58' W 076°29'0 0.0
2017-Sep-29 19:59N 38°58' W 076°29'0 0.0
2017-Sep-29 19:29N 38°58' W 076°29'0 0.0
2017-Sep-29 18:59N 38°58' W 076°29'0 0.0
2017-Sep-29 18:29N 38°58' W 076°29'0 0.0
2017-Sep-29 17:59N 38°58' W 076°29'0 0.0
2017-Sep-29 17:29N 38°58' W 076°29'  
Track history (hours):
 
Tides and Currents Weather Stations Pressure Air Temp Water Temp Dewpoint Dewpoint Depression Visibility Wind Speed Wind Dir Waves Ship Positions

Sy Kerpa

Last reported at 2017-Oct-09 17:00 UTC. Time now 2017-Nov-21 10:21 UTC.
Position N 39°22' W 075°53'.
Warning: this ship's position is 42 days out of date.

Length 16 m.

Type: Sailing vessel. MMSI: 265757350.

Date/timePositionNaut miles runAvg speedWind from/ knotsBaromVisibWave heightAir tempDewpointWater temp
2017-Oct-09 17:00N 39°22' W 075°53'0 0.0
2017-Oct-09 16:30N 39°22' W 075°53'0 0.0
2017-Oct-09 16:00N 39°22' W 075°53'0 0.0
2017-Oct-09 15:12N 39°22' W 075°53'0 0.0
2017-Oct-09 14:57N 39°22' W 075°53'0 0.0
2017-Oct-09 14:30N 39°22' W 075°53'0 0.0
2017-Oct-09 12:57N 39°22' W 075°53'0 0.0
2017-Oct-09 12:30N 39°22' W 075°53'0 0.0
2017-Oct-09 11:18N 39°22' W 075°53'0 0.0
2017-Oct-09 10:54N 39°22' W 075°53'0 0.0
2017-Oct-09 10:27N 39°22' W 075°53'0 0.0
2017-Oct-09 09:57N 39°22' W 075°53'0 0.0
2017-Oct-09 09:24N 39°22' W 075°53'0 0.0
2017-Oct-09 09:00N 39°22' W 075°53'0 0.0
2017-Oct-09 08:30N 39°22' W 075°53'0 0.0
2017-Oct-09 07:48N 39°22' W 075°53'0 0.0
2017-Oct-09 07:30N 39°22' W 075°53'0 0.0
2017-Oct-09 07:00N 39°22' W 075°53'0 0.0
2017-Oct-09 06:30N 39°22' W 075°53'0 0.0
2017-Oct-09 05:54N 39°22' W 075°53'0 0.0
2017-Oct-09 05:24N 39°22' W 075°53'0 0.0
2017-Oct-09 04:57N 39°22' W 075°53'0 0.0
2017-Oct-09 04:18N 39°22' W 075°53'0 0.0
2017-Oct-09 03:24N 39°22' W 075°53'0 0.0
2017-Oct-09 03:00N 39°22' W 075°53'0 0.0
2017-Oct-09 02:27N 39°22' W 075°53'0 0.0
2017-Oct-09 02:00N 39°22' W 075°53'0 0.0
2017-Oct-09 01:30N 39°22' W 075°53'0 0.0
2017-Oct-09 01:00N 39°22' W 075°53'0 0.0
2017-Oct-08 21:51N 39°22' W 075°53'0 0.0
2017-Oct-08 21:00N 39°22' W 075°53'0 0.0
2017-Oct-08 19:48N 39°22' W 075°53'0 0.0
2017-Oct-08 19:30N 39°22' W 075°53'0 0.0
2017-Oct-08 18:15N 39°22' W 075°53'0 0.0
2017-Oct-08 17:06N 39°22' W 075°53'0 0.0
2017-Oct-08 16:54N 39°22' W 075°53'0 0.0
2017-Oct-08 15:42N 39°22' W 075°53'0 0.0
2017-Oct-08 15:24N 39°22' W 075°53'0 0.0
2017-Oct-08 14:49N 39°22' W 075°53'0 0.8
2017-Oct-08 14:23N 39°22' W 075°53'1 1.5
2017-Oct-08 13:59N 39°22' W 075°54'0 0.0
2017-Oct-08 13:29N 39°22' W 075°54'0 0.0
2017-Oct-08 12:59N 39°22' W 075°54'0 0.0
2017-Oct-08 12:29N 39°22' W 075°54'0 0.0
2017-Oct-08 11:56N 39°22' W 075°54'0 0.0
2017-Oct-08 11:29N 39°22' W 075°54'0 0.0
2017-Oct-08 10:47N 39°22' W 075°54'0 0.0
2017-Oct-08 10:29N 39°22' W 075°54'0 0.0
2017-Oct-08 09:32N 39°22' W 075°54'0 0.0
2017-Oct-08 09:29N 39°22' W 075°54'0 0.0
2017-Oct-08 08:56N 39°22' W 075°54'0 0.0
2017-Oct-08 07:14N 39°22' W 075°54'0 0.0
2017-Oct-08 06:47N 39°22' W 075°54'0 0.0
2017-Oct-08 06:11N 39°22' W 075°54'0 0.0
2017-Oct-08 05:56N 39°22' W 075°54'0 0.0
2017-Oct-08 05:26N 39°22' W 075°54'0 0.0
2017-Oct-08 04:59N 39°22' W 075°54'0 0.0
2017-Oct-08 04:29N 39°22' W 075°54'0 0.0
2017-Oct-08 03:41N 39°22' W 075°54'0 0.0
2017-Oct-08 03:14N 39°22' W 075°54'0 0.0
2017-Oct-08 02:56N 39°22' W 075°54'0 0.0
2017-Oct-08 02:20N 39°22' W 075°54'0 0.0
2017-Oct-08 01:47N 39°22' W 075°54'0 0.0
2017-Oct-08 01:29N 39°22' W 075°54'0 0.0
2017-Oct-08 00:56N 39°22' W 075°54'0 0.0
2017-Oct-08 00:29N 39°22' W 075°54'0 0.0
2017-Oct-07 22:50N 39°22' W 075°54'0 0.0
2017-Oct-07 22:20N 39°22' W 075°54'1 1.9
2017-Oct-07 21:59N 39°22' W 075°55'3 5.6
2017-Oct-07 21:30N 39°22' W 075°59'3 5.6
2017-Oct-07 21:00N 39°23' W 076°02'30 4.3
2017-Oct-07 14:03N 38°59' W 076°25'0 3.5
2017-Oct-07 14:00N 38°58' W 076°25'2 3.7
2017-Oct-07 13:30N 38°58' W 076°28'1 1.8
2017-Oct-07 12:56N 38°58' W 076°29'0 0.0
2017-Oct-07 12:29N 38°58' W 076°29'0 0.0
2017-Oct-07 11:59N 38°58' W 076°29'0 0.0
2017-Oct-07 11:29N 38°58' W 076°29'0 0.0
2017-Oct-07 10:59N 38°58' W 076°29'0 0.0
2017-Oct-07 10:29N 38°58' W 076°29'0 0.0
2017-Oct-07 09:59N 38°58' W 076°29'0 0.0
2017-Oct-07 09:29N 38°58' W 076°29'0 0.0
2017-Oct-07 08:59N 38°58' W 076°29'0 0.0
2017-Oct-07 08:29N 38°58' W 076°29'0 0.0
2017-Oct-07 07:59N 38°58' W 076°29'0 0.0
2017-Oct-07 07:29N 38°58' W 076°29'0 0.0
2017-Oct-07 06:59N 38°58' W 076°29'0 0.0
2017-Oct-07 06:29N 38°58' W 076°29'0 0.0
2017-Oct-07 05:59N 38°58' W 076°29'0 0.0
2017-Oct-07 05:29N 38°58' W 076°29'0 0.0
2017-Oct-07 04:59N 38°58' W 076°29'0 0.0
2017-Oct-07 04:29N 38°58' W 076°29'0 0.0
2017-Oct-07 03:59N 38°58' W 076°29'0 0.0
2017-Oct-07 03:29N 38°58' W 076°29'0 0.0
2017-Oct-07 02:59N 38°58' W 076°29'0 0.0
2017-Oct-07 02:29N 38°58' W 076°29'0 0.0
2017-Oct-07 01:59N 38°58' W 076°29'0 0.0
2017-Oct-07 01:29N 38°58' W 076°29'0 0.0
2017-Oct-07 00:59N 38°58' W 076°29'0 0.0
2017-Oct-06 16:41N 38°58' W 076°29'0 0.0
2017-Oct-06 16:29N 38°58' W 076°29'0 0.0
2017-Oct-06 15:59N 38°58' W 076°29'0 0.0
2017-Oct-06 15:29N 38°58' W 076°29'0 0.0
2017-Oct-06 14:59N 38°58' W 076°29'0 0.0
2017-Oct-06 14:29N 38°58' W 076°29'0 0.0
2017-Oct-06 13:59N 38°58' W 076°29'0 0.0
2017-Oct-06 13:29N 38°58' W 076°29'0 0.0
2017-Oct-06 12:59N 38°58' W 076°29'0 0.0
2017-Oct-06 12:29N 38°58' W 076°29'0 0.0
2017-Oct-06 11:59N 38°58' W 076°29'0 0.0
2017-Oct-06 11:29N 38°58' W 076°29'0 0.0
2017-Oct-06 10:59N 38°58' W 076°29'0 0.0
2017-Oct-06 10:29N 38°58' W 076°29'0 0.0
2017-Oct-06 09:59N 38°58' W 076°29'0 0.0
2017-Oct-06 09:29N 38°58' W 076°29'0 0.0
2017-Oct-06 08:59N 38°58' W 076°29'0 0.0
2017-Oct-06 08:29N 38°58' W 076°29'0 0.0
2017-Oct-06 07:59N 38°58' W 076°29'0 0.0
2017-Oct-06 07:29N 38°58' W 076°29'0 0.0
2017-Oct-06 06:59N 38°58' W 076°29'0 0.0
2017-Oct-06 06:29N 38°58' W 076°29'0 0.0
2017-Oct-06 05:59N 38°58' W 076°29'0 0.0
2017-Oct-06 05:29N 38°58' W 076°29'0 0.0
2017-Oct-06 04:59N 38°58' W 076°29'0 0.0
2017-Oct-06 04:29N 38°58' W 076°29'0 0.0
2017-Oct-06 03:59N 38°58' W 076°29'0 0.0
2017-Oct-06 03:29N 38°58' W 076°29'0 0.0
2017-Oct-06 02:59N 38°58' W 076°29'0 0.0
2017-Oct-06 02:29N 38°58' W 076°29'0 0.0
2017-Oct-06 01:59N 38°58' W 076°29'0 0.0
2017-Oct-06 01:29N 38°58' W 076°29'0 0.0
2017-Oct-06 00:59N 38°58' W 076°29'0 0.0
2017-Oct-06 00:29N 38°58' W 076°29'0 0.0
2017-Oct-05 23:59N 38°58' W 076°29'0 0.0
2017-Oct-05 23:29N 38°58' W 076°29'0 0.0
2017-Oct-05 22:59N 38°58' W 076°29'0 0.0
2017-Oct-05 22:29N 38°58' W 076°29'0 0.0
2017-Oct-05 21:56N 38°58' W 076°29'0 0.0
2017-Oct-05 21:29N 38°58' W 076°29'0 0.0
2017-Oct-05 20:59N 38°58' W 076°29'0 0.0
2017-Oct-05 20:29N 38°58' W 076°29'0 0.0
2017-Oct-05 19:59N 38°58' W 076°29'0 0.0
2017-Oct-05 19:29N 38°58' W 076°29'0 0.0
2017-Oct-05 18:59N 38°58' W 076°29'0 0.0
2017-Oct-05 18:29N 38°58' W 076°29'0 0.0
2017-Oct-05 17:59N 38°58' W 076°29'0 0.0
2017-Oct-05 17:29N 38°58' W 076°29'0 0.0
2017-Oct-05 16:59N 38°58' W 076°29'0 0.0
2017-Oct-05 15:29N 38°58' W 076°29'0 0.0
2017-Oct-05 14:59N 38°58' W 076°29'0 0.0
2017-Oct-05 14:29N 38°58' W 076°29'0 0.0
2017-Oct-05 13:59N 38°58' W 076°29'0 0.0
2017-Oct-05 13:29N 38°58' W 076°29'0 0.0
2017-Oct-05 12:59N 38°58' W 076°29'0 0.0
2017-Oct-05 12:29N 38°58' W 076°29'0 0.0
2017-Oct-05 11:59N 38°58' W 076°29'0 0.0
2017-Oct-05 11:29N 38°58' W 076°29'0 0.0
2017-Oct-05 10:59N 38°58' W 076°29'0 0.0
2017-Oct-05 10:29N 38°58' W 076°29'0 0.0
2017-Oct-05 09:59N 38°58' W 076°29'0 0.0
2017-Oct-05 09:29N 38°58' W 076°29'0 0.0
2017-Oct-05 08:59N 38°58' W 076°29'0 0.0
2017-Oct-05 08:29N 38°58' W 076°29'0 0.0
2017-Oct-05 07:59N 38°58' W 076°29'0 0.0
2017-Oct-05 07:29N 38°58' W 076°29'0 0.0
2017-Oct-05 06:59N 38°58' W 076°29'0 0.0
2017-Oct-05 06:29N 38°58' W 076°29'0 0.0
2017-Oct-05 05:59N 38°58' W 076°29'0 0.0
2017-Oct-05 05:29N 38°58' W 076°29'0 0.0
2017-Oct-05 04:59N 38°58' W 076°29'0 0.0
2017-Oct-05 04:29N 38°58' W 076°29'0 0.0
2017-Oct-05 03:59N 38°58' W 076°29'0 0.0
2017-Oct-05 03:29N 38°58' W 076°29'0 0.0
2017-Oct-05 02:59N 38°58' W 076°29'0 0.0
2017-Oct-05 02:29N 38°58' W 076°29'0 0.0
2017-Oct-05 01:59N 38°58' W 076°29'0 0.0
2017-Oct-05 01:29N 38°58' W 076°29'0 0.0
2017-Oct-05 00:59N 38°58' W 076°29'0 0.0
2017-Oct-05 00:29N 38°58' W 076°29'0 0.0
2017-Oct-04 23:59N 38°58' W 076°29'0 0.0
2017-Oct-04 23:29N 38°58' W 076°29'0 0.0
2017-Oct-04 22:59N 38°58' W 076°29'0 0.0
2017-Oct-04 22:29N 38°58' W 076°29'0 0.0
2017-Oct-04 21:59N 38°58' W 076°29'0 0.0
2017-Oct-04 21:29N 38°58' W 076°29'0 0.0
2017-Oct-04 20:59N 38°58' W 076°29'0 0.0
2017-Oct-04 20:29N 38°58' W 076°29'0 0.0
2017-Oct-04 19:08N 38°58' W 076°29'0 0.0
2017-Oct-04 18:59N 38°58' W 076°29'0 0.0
2017-Oct-04 18:29N 38°58' W 076°29'0 0.0
2017-Oct-04 17:59N 38°58' W 076°29'0 0.0
2017-Oct-04 17:29N 38°58' W 076°29'0 0.0
2017-Oct-04 16:59N 38°58' W 076°29'0 0.0
2017-Oct-04 16:29N 38°58' W 076°29'0 0.0
2017-Oct-04 15:59N 38°58' W 076°29'0 0.0
2017-Oct-04 15:29N 38°58' W 076°29'0 0.0
2017-Oct-04 14:59N 38°58' W 076°29'0 0.0
2017-Oct-04 14:29N 38°58' W 076°29'0 0.0
2017-Oct-04 13:11N 38°58' W 076°29'0 0.0
2017-Oct-04 12:59N 38°58' W 076°29'0 0.0
2017-Oct-04 12:29N 38°58' W 076°29'0 0.0
2017-Oct-04 11:59N 38°58' W 076°29'0 0.0
2017-Oct-04 11:29N 38°58' W 076°29'0 0.0
2017-Oct-04 10:59N 38°58' W 076°29'0 0.0
2017-Oct-04 10:29N 38°58' W 076°29'0 0.0
2017-Oct-04 09:59N 38°58' W 076°29'0 0.0
2017-Oct-04 09:29N 38°58' W 076°29'0 0.0
2017-Oct-04 08:59N 38°58' W 076°29'0 0.0
2017-Oct-04 08:29N 38°58' W 076°29'0 0.0
2017-Oct-04 07:59N 38°58' W 076°29'0 0.0
2017-Oct-04 07:29N 38°58' W 076°29'0 0.0
2017-Oct-04 06:59N 38°58' W 076°29'0 0.0
2017-Oct-04 06:29N 38°58' W 076°29'0 0.0
2017-Oct-04 05:59N 38°58' W 076°29'0 0.0
2017-Oct-04 05:26N 38°58' W 076°29'0 0.0
2017-Oct-04 04:59N 38°58' W 076°29'0 0.0
2017-Oct-04 04:29N 38°58' W 076°29'0 0.0
2017-Oct-04 03:59N 38°58' W 076°29'0 0.0
2017-Oct-04 03:29N 38°58' W 076°29'0 0.0
2017-Oct-04 02:59N 38°58' W 076°29'0 0.0
2017-Oct-04 02:29N 38°58' W 076°29'0 0.0
2017-Oct-04 01:59N 38°58' W 076°29'0 0.0
2017-Oct-04 01:29N 38°58' W 076°29'0 0.0
2017-Oct-04 00:59N 38°58' W 076°29'0 0.0
2017-Oct-04 00:29N 38°58' W 076°29'0 0.0
2017-Oct-03 23:59N 38°58' W 076°29'0 0.0
2017-Oct-03 23:29N 38°58' W 076°29'0 0.0
2017-Oct-03 22:59N 38°58' W 076°29'0 0.0
2017-Oct-03 22:29N 38°58' W 076°29'0 0.0
2017-Oct-03 21:59N 38°58' W 076°29'0 0.0
2017-Oct-03 21:29N 38°58' W 076°29'0 0.0
2017-Oct-03 20:59N 38°58' W 076°29'0 0.0
2017-Oct-03 20:29N 38°58' W 076°29'0 0.0
2017-Oct-03 19:59N 38°58' W 076°29'0 0.0
2017-Oct-03 19:26N 38°58' W 076°29'0 0.0
2017-Oct-03 18:59N 38°58' W 076°29'0 0.0
2017-Oct-03 18:29N 38°58' W 076°29'0 0.0
2017-Oct-03 17:59N 38°58' W 076°29'0 0.0
2017-Oct-03 17:29N 38°58' W 076°29'0 0.0
2017-Oct-03 16:59N 38°58' W 076°29'0 0.0
2017-Oct-03 16:29N 38°58' W 076°29'0 0.0
2017-Oct-03 15:59N 38°58' W 076°29'0 0.0
2017-Oct-03 15:29N 38°58' W 076°29'0 0.0
2017-Oct-03 14:59N 38°58' W 076°29'0 0.0
2017-Oct-03 13:59N 38°58' W 076°29'0 0.0
2017-Oct-03 13:29N 38°58' W 076°29'0 0.0
2017-Oct-03 12:59N 38°58' W 076°29'0 0.0
2017-Oct-03 12:29N 38°58' W 076°29'0 0.0
2017-Oct-03 11:59N 38°58' W 076°29'0 0.0
2017-Oct-03 11:29N 38°58' W 076°29'0 0.0
2017-Oct-03 10:59N 38°58' W 076°29'0 0.0
2017-Oct-03 10:29N 38°58' W 076°29'0 0.0
2017-Oct-03 09:59N 38°58' W 076°29'0 0.0
2017-Oct-03 09:29N 38°58' W 076°29'0 0.0
2017-Oct-03 08:53N 38°58' W 076°29'0 0.0
2017-Oct-03 08:29N 38°58' W 076°29'0 0.0
2017-Oct-03 07:59N 38°58' W 076°29'0 0.0
2017-Oct-03 07:29N 38°58' W 076°29'0 0.0
2017-Oct-03 06:59N 38°58' W 076°29'0 0.0
2017-Oct-03 06:29N 38°58' W 076°29'0 0.0
2017-Oct-03 05:59N 38°58' W 076°29'0 0.0
2017-Oct-03 05:29N 38°58' W 076°29'0 0.0
2017-Oct-03 04:59N 38°58' W 076°29'0 0.0
2017-Oct-03 04:26N 38°58' W 076°29'0 0.0
2017-Oct-03 03:59N 38°58' W 076°29'0 0.0
2017-Oct-03 03:29N 38°58' W 076°29'0 0.0
2017-Oct-03 02:59N 38°58' W 076°29'0 0.0
2017-Oct-03 02:29N 38°58' W 076°29'0 0.0
2017-Oct-03 01:59N 38°58' W 076°29'0 0.0
2017-Oct-03 01:29N 38°58' W 076°29'0 0.0
2017-Oct-03 00:59N 38°58' W 076°29'0 0.0
2017-Oct-03 00:29N 38°58' W 076°29'0 0.0
2017-Oct-02 23:59N 38°58' W 076°29'0 0.0
2017-Oct-02 23:29N 38°58' W 076°29'0 0.0
2017-Oct-02 22:59N 38°58' W 076°29'0 0.0
2017-Oct-02 22:29N 38°58' W 076°29'0 0.0
2017-Oct-02 21:59N 38°58' W 076°29'0 0.0
2017-Oct-02 21:29N 38°58' W 076°29'0 0.0
2017-Oct-02 20:56N 38°58' W 076°29'0 0.0
2017-Oct-02 20:29N 38°58' W 076°29'0 0.0
2017-Oct-02 19:59N 38°58' W 076°29'0 0.0
2017-Oct-02 19:29N 38°58' W 076°29'0 0.0
2017-Oct-02 18:56N 38°58' W 076°29'0 0.0
2017-Oct-02 18:29N 38°58' W 076°29'0 0.0
2017-Oct-02 17:59N 38°58' W 076°29'0 0.0
2017-Oct-02 17:29N 38°58' W 076°29'0 0.0
2017-Oct-02 16:59N 38°58' W 076°29'0 0.0
2017-Oct-02 16:29N 38°58' W 076°29'0 0.0
2017-Oct-02 15:59N 38°58' W 076°29'0 0.0
2017-Oct-02 15:29N 38°58' W 076°29'0 0.0
2017-Oct-02 14:59N 38°58' W 076°29'0 0.0
2017-Oct-02 14:29N 38°58' W 076°29'0 0.0
2017-Oct-02 13:59N 38°58' W 076°29'0 0.0
2017-Oct-02 13:29N 38°58' W 076°29'0 0.0
2017-Oct-02 12:59N 38°58' W 076°29'0 0.0
2017-Oct-02 12:29N 38°58' W 076°29'0 0.0
2017-Oct-02 11:59N 38°58' W 076°29'0 0.0
2017-Oct-02 11:29N 38°58' W 076°29'0 0.0
2017-Oct-02 10:59N 38°58' W 076°29'0 0.0
2017-Oct-02 10:29N 38°58' W 076°29'0 0.0
2017-Oct-02 09:59N 38°58' W 076°29'0 0.0
2017-Oct-02 09:29N 38°58' W 076°29'0 0.0
2017-Oct-02 08:59N 38°58' W 076°29'0 0.0
2017-Oct-02 08:29N 38°58' W 076°29'0 0.0
2017-Oct-02 07:59N 38°58' W 076°29'0 0.0
2017-Oct-02 07:29N 38°58' W 076°29'0 0.0
2017-Oct-02 06:59N 38°58' W 076°29'0 0.0
2017-Oct-02 06:29N 38°58' W 076°29'0 0.0
2017-Oct-02 05:59N 38°58' W 076°29'0 0.0
2017-Oct-02 05:29N 38°58' W 076°29'0 0.0
2017-Oct-02 04:59N 38°58' W 076°29'0 0.0
2017-Oct-02 04:29N 38°58' W 076°29'0 0.0
2017-Oct-02 03:59N 38°58' W 076°29'0 0.0
2017-Oct-02 03:29N 38°58' W 076°29'0 0.0
2017-Oct-02 02:59N 38°58' W 076°29'0 0.0
2017-Oct-02 02:29N 38°58' W 076°29'0 0.0
2017-Oct-02 01:59N 38°58' W 076°29'0 0.0
2017-Oct-02 01:29N 38°58' W 076°29'0 0.0
2017-Oct-02 00:59N 38°58' W 076°29'0 0.0
2017-Oct-02 00:29N 38°58' W 076°29'0 0.0
2017-Oct-01 23:59N 38°58' W 076°29'0 0.0
2017-Oct-01 23:29N 38°58' W 076°29'0 0.0
2017-Oct-01 22:59N 38°58' W 076°29'0 0.0
2017-Oct-01 22:29N 38°58' W 076°29'0 0.0
2017-Oct-01 21:59N 38°58' W 076°29'0 0.0
2017-Oct-01 21:29N 38°58' W 076°29'0 0.0
2017-Oct-01 20:59N 38°58' W 076°29'0 0.0
2017-Oct-01 20:29N 38°58' W 076°29'0 0.0
2017-Oct-01 19:59N 38°58' W 076°29'0 0.0
2017-Oct-01 19:29N 38°58' W 076°29'0 0.0
2017-Oct-01 18:59N 38°58' W 076°29'0 0.0
2017-Oct-01 18:29N 38°58' W 076°29'0 0.0
2017-Oct-01 17:59N 38°58' W 076°29'0 0.0
2017-Oct-01 17:29N 38°58' W 076°29'0 0.0
2017-Oct-01 16:59N 38°58' W 076°29'0 0.0
2017-Oct-01 16:29N 38°58' W 076°29'0 0.0
2017-Oct-01 15:59N 38°58' W 076°29'0 0.0
2017-Oct-01 15:29N 38°58' W 076°29'0 0.0
2017-Oct-01 14:59N 38°58' W 076°29'0 0.0
2017-Oct-01 14:29N 38°58' W 076°29'0 0.0
2017-Oct-01 13:59N 38°58' W 076°29'0 0.0
2017-Oct-01 13:29N 38°58' W 076°29'0 0.0
2017-Oct-01 12:59N 38°58' W 076°29'0 0.0
2017-Oct-01 12:29N 38°58' W 076°29'0 0.0
2017-Oct-01 11:59N 38°58' W 076°29'0 0.0
2017-Oct-01 11:29N 38°58' W 076°29'0 0.0
2017-Oct-01 10:59N 38°58' W 076°29'0 0.0
2017-Oct-01 10:29N 38°58' W 076°29'0 0.0
2017-Oct-01 09:59N 38°58' W 076°29'0 0.0
2017-Oct-01 09:29N 38°58' W 076°29'0 0.0
2017-Oct-01 08:59N 38°58' W 076°29'0 0.0
2017-Oct-01 08:29N 38°58' W 076°29'0 0.0
2017-Oct-01 07:59N 38°58' W 076°29'0 0.0
2017-Oct-01 07:29N 38°58' W 076°29'0 0.0
2017-Oct-01 06:59N 38°58' W 076°29'0 0.0
2017-Oct-01 06:29N 38°58' W 076°29'0 0.0
2017-Oct-01 05:59N 38°58' W 076°29'0 0.0
2017-Oct-01 05:29N 38°58' W 076°29'0 0.0
2017-Oct-01 04:59N 38°58' W 076°29'0 0.0
2017-Oct-01 04:29N 38°58' W 076°29'0 0.0
2017-Oct-01 03:59N 38°58' W 076°29'0 0.0
2017-Oct-01 03:29N 38°58' W 076°29'0 0.0
2017-Oct-01 02:56N 38°58' W 076°29'0 0.0
2017-Sep-30 01:59N 38°58' W 076°29'0 0.0
2017-Sep-30 01:29N 38°58' W 076°29'0 0.0
2017-Sep-30 00:59N 38°58' W 076°29'0 0.0
2017-Sep-30 00:29N 38°58' W 076°29'0 0.0
2017-Sep-29 23:59N 38°58' W 076°29'0 0.0
2017-Sep-29 23:26N 38°58' W 076°29'0 0.0
2017-Sep-29 22:59N 38°58' W 076°29'0 0.0
2017-Sep-29 22:29N 38°58' W 076°29'0 0.0
2017-Sep-29 21:59N 38°58' W 076°29'0 0.0
2017-Sep-29 21:29N 38°58' W 076°29'0 0.0
2017-Sep-29 20:59N 38°58' W 076°29'0 0.0
2017-Sep-29 20:29N 38°58' W 076°29'0 0.0
2017-Sep-29 19:59N 38°58' W 076°29'0 0.0
2017-Sep-29 19:29N 38°58' W 076°29'0 0.0
2017-Sep-29 18:59N 38°58' W 076°29'0 0.0
2017-Sep-29 18:29N 38°58' W 076°29'0 0.0
2017-Sep-29 17:59N 38°58' W 076°29'0 0.0
2017-Sep-29 17:29N 38°58' W 076°29'  

Dump ship's entire track history